Nearby METAR Reports

 

KMQS - Coatesville, Pennsylvania, USA
Distance from station: NW 12mi, 19km
Updated: Sun, 29-Nov-2020 4:55pm EST
Clear
Clear
 Wind from calm
Wind: Calm
Temperature: 48°F , 9°C
Dew Point: 30°F , -1°C
Humidity: 50%
Barometer: 30.12 inHg , 1020 hPa
Clouds: Clear
Visibility: 10 miles , 16 km
2020/11/29 21:55 KMQS 292155Z AUTO 00000KT 10SM CLR 09/M01 A3012 RMK AO2
KOQN - West Chester, Pennsylvania, USA
Distance from station: NE 13mi, 21km
Updated: Sun, 29-Nov-2020 4:55pm EST
Clear
Clear
 Wind from calm
Wind: Calm
Temperature: 50°F , 10°C
Dew Point: 28°F , -2°C
Humidity: 43%
Barometer: 30.12 inHg , 1020 hPa
Clouds: Clear
Visibility: 10 miles , 16 km
2020/11/29 21:55 KOQN 292155Z AUTO 00000KT 10SM CLR 10/M02 A3012 RMK AO2
 
KILG - Wilmington, Delaware, USA
Distance from station: SSE 14mi, 23km
Updated: Sun, 29-Nov-2020 4:51pm EST
Clear
Clear
 Wind from S
Wind: S 8 mph , 13 km/h
Temperature: 48°F , 9°C
Wind Chill: 44°F , 7°C
Dew Point: 34°F , 1°C
Humidity: 58%
Barometer: 30.14 inHg , 1020.7 hPa
Clouds: Clear
Visibility: 10 miles , 16 km
2020/11/29 21:51 KILG 292151Z 18007KT 10SM CLR 09/01 A3014 RMK AO2 SLP205 T00940006 $
KPHL - Philadelphia, Pennsylvania, USA
Distance from station: E 27mi, 43km
Updated: Sun, 29-Nov-2020 4:54pm EST
Mostly cloudy
Mostly cloudy
 Wind from S
Wind: S 5 mph , 7 km/h
Temperature: 52°F , 11°C
Dew Point: 28°F , -2°C
Humidity: 41%
Barometer: 30.13 inHg , 1020.3 hPa
Clouds: Mostly cloudy
Visibility: 10 miles , 16 km
Cloud details: Mostly cloudy 25000 ft
2020/11/29 21:54 KPHL 292154Z 19004KT 10SM BKN250 11/M02 A3013 RMK AO2 SLP202 T01111022
 
KPTW - Pottstown, Pennsylvania, USA
Distance from station: NNE 29mi, 47km
Updated: Sun, 29-Nov-2020 4:54pm EST
Clear
Clear
 Wind from calm
Wind: Calm
Temperature: 45°F , 7°C
Dew Point: 27°F , -3°C
Humidity: 49%
Barometer: 30.12 inHg , 1020 hPa
Clouds: Clear
Visibility: 10 miles , 16 km
2020/11/29 21:54 KPTW 292154Z AUTO 00000KT 10SM CLR 07/M03 A3012 RMK AO2 SLP199 T00721033
KLOM - Philly Wings F, Pennsylvania, USA
Distance from station: NE 32mi, 52km
Updated: Sun, 29-Nov-2020 4:55pm EST
Clear
Clear
 Wind from S
Wind: S 3 mph , 6 km/h
Temperature: 43°F , 6°C
Dew Point: 27°F , -3°C
Humidity: 53%
Barometer: 30.12 inHg , 1020 hPa
Clouds: Clear
Visibility: 10 miles , 16 km
2020/11/29 21:55 KLOM 292155Z AUTO 19003KT 10SM CLR 06/M03 A3012 RMK AO2 T00641025
 
KAPG - Aberdeen/Phillip, Maryland, USA
Distance from station: SW 34mi, 55km
Updated: Sun, 29-Nov-2020 4:58pm EST
Clear
Clear
 Wind from S
Wind: S 3 mph , 6 km/h
Temperature: 48°F , 9°C
Dew Point: 34°F , 1°C
Humidity: 58%
Barometer: 30.12 inHg , 1020 hPa
Clouds: Clear
Visibility: 8 miles , 13 km
2020/11/29 21:58 KAPG 292158Z AUTO 18003KT 8SM CLR 09/01 A3012 RMK AO2 SLP203 T00900005 $
KLNS - Lancaster, Pennsylvania, USA
Distance from station: WNW 35mi, 57km
Updated: Sun, 29-Nov-2020 4:53pm EST
Clear
Clear
 Wind from E
Wind: E 3 mph , 6 km/h
Temperature: 48°F , 9°C
Dew Point: 28°F , -2°C
Humidity: 46%
Barometer: 30.10 inHg , 1019.3 hPa
Clouds: Clear
Visibility: 10 miles , 16 km
2020/11/29 21:53 KLNS 292153Z 10003KT 10SM CLR 09/M02 A3010 RMK AO2 SLP194 T00941022
 
KRDG - Reading, Pennsylvania, USA
Distance from station: NNW 38mi, 62km
Updated: Sun, 29-Nov-2020 4:54pm EST
Clear
Clear
 Wind from SSE
Wind: SSE 3 mph , 6 km/h
Temperature: 50°F , 10°C
Dew Point: 25°F , -4°C
Humidity: 37%
Barometer: 30.09 inHg , 1019 hPa
Clouds: Clear
Visibility: 10 miles , 16 km
2020/11/29 21:54 KRDG 292154Z 16003KT 10SM CLR 10/M04 A3009 RMK AO2 SLP197 T01001039
KPNE - Philadelphia/Ne, Pennsylvania, USA
Distance from station: ENE 42mi, 67km
Updated: Sun, 29-Nov-2020 4:54pm EST
Clear
Clear
 Wind from calm
Wind: Calm
Temperature: 52°F , 11°C
Dew Point: 27°F , -3°C
Humidity: 38%
Barometer: 30.13 inHg , 1020.3 hPa
Clouds: Clear
Visibility: 10 miles , 16 km
2020/11/29 21:54 KPNE 292154Z 00000KT 10SM CLR 11/M03 A3013 RMK AO2 SLP205 T01061033
 
KCKZ - Perkasie, Pennsylvania, USA
Distance from station: NNE 45mi, 72km
Updated: Sun, 29-Nov-2020 4:55pm EST

 Wind from calm
Wind: Calm
Temperature: 45°F , 7°C
Dew Point: 27°F , -3°C
Humidity: 49%
Barometer: 30.12 inHg , 1020 hPa
Visibility: 10 miles , 16 km
2020/11/29 21:55 KCKZ 292155Z AUTO 00000KT 10SM 07/M03 A3012 RMK AO2
KUKT - Quakertown Arp, Pennsylvania, USA
Distance from station: NNE 45mi, 73km
Updated: Sun, 29-Nov-2020 4:55pm EST
Clear
Clear
 
Temperature: 45°F , 7°C
Dew Point: 25°F , -4°C
Humidity: 46%
Barometer: 30.11 inHg , 1019.6 hPa
Clouds: Clear
Visibility: 10 miles , 16 km
2020/11/29 21:55 KUKT 292155Z AUTO 10SM CLR 07/M04 A3011 RMK A01
 
KDYL - Doylestown, Pennsylvania, USA
Distance from station: NE 47mi, 76km
Updated: Sun, 29-Nov-2020 4:54pm EST
Clear
Clear
 Wind from calm
Wind: Calm
Temperature: 48°F , 9°C
Dew Point: 21°F , -6°C
Humidity: 34%
Barometer: 30.11 inHg , 1019.6 hPa
Clouds: Clear
Visibility: 10 miles , 16 km
2020/11/29 21:54 KDYL 292154Z AUTO 00000KT 10SM CLR 09/M06 A3011 RMK AO2 SLP199 T00941056
KMIV - Millville, New Jersey, USA
Distance from station: SE 48mi, 77km
Updated: Sun, 29-Nov-2020 4:54pm EST
Clear
Clear
 Wind from calm
Wind: Calm
Temperature: 45°F , 7°C
Dew Point: 30°F , -1°C
Humidity: 57%
Barometer: 30.14 inHg , 1020.7 hPa
Clouds: Clear
Visibility: 10 miles , 16 km
2020/11/29 21:54 KMIV 292154Z AUTO 00000KT 10SM CLR 07/M01 A3014 RMK AO2 SLP205 T00721006
 
KVAY - Mount Holly, New Jersey, USA
Distance from station: E 48mi, 78km
Updated: Sun, 29-Nov-2020 4:54pm EST
Clear
Clear
 Wind from calm
Wind: Calm
Temperature: 48°F , 9°C
Dew Point: 27°F , -3°C
Humidity: 43%
Barometer: 30.13 inHg , 1020.3 hPa
Clouds: Clear
Visibility: 10 miles , 16 km
2020/11/29 21:54 KVAY 292154Z AUTO 00000KT 10SM CLR 09/M03 A3013 RMK AO2 SLP203 T00941033